Desert Aire, Washington
Current Conditions -  °F | °C
As of 8:31 AM on Thursday 29 Jan 2015 (Local Time) from K1YT Reporting Station
Haze Haze  
Wind Chill: 34°   Ceiling: 400
Heat Index: 34°   Visibility: 1.5mi
Dew Point: 32°   Wind: 1mph
Humidity: 93%   Direction: 290°WNW
Pressure: 30.46"   Gusts: NA
Location:  46.6873°N, 119.887°W
Report Text: K1YT 291631Z AUTO 29001KT 1 1/2SM BR OVC004 01/00 A3046 RMK AO2 VIS 1/2V1 1/2
Loading
Personal Weather Stations






























Interactive Weather Map New forecast layout! Learn more

10-Day Weather Forecast

Advertisements
Track Severe Weather on mobile